sensor_id;sensor_type;location;lat;lon;timestamp;P1;durP1;ratioP1;P2;durP2;ratioP2
27796;SDS011;15177;50.844;4.412;2022-11-15T00:00:23;29.13;;;16.90;;
27796;SDS011;15177;50.844;4.412;2022-11-15T00:02:49;34.87;;;15.63;;
27796;SDS011;15177;50.844;4.412;2022-11-15T00:05:16;24.90;;;15.80;;
27796;SDS011;15177;50.844;4.412;2022-11-15T00:07:42;28.10;;;16.43;;
27796;SDS011;15177;50.844;4.412;2022-11-15T00:10:08;26.50;;;15.87;;
27796;SDS011;15177;50.844;4.412;2022-11-15T00:12:33;34.23;;;17.00;;
27796;SDS011;15177;50.844;4.412;2022-11-15T00:14:59;29.13;;;15.93;;
27796;SDS011;15177;50.844;4.412;2022-11-15T00:17:25;34.17;;;17.37;;
27796;SDS011;15177;50.844;4.412;2022-11-15T00:19:50;31.60;;;16.10;;
27796;SDS011;15177;50.844;4.412;2022-11-15T00:22:16;31.40;;;16.93;;
27796;SDS011;15177;50.844;4.412;2022-11-15T00:24:42;30.67;;;17.40;;
27796;SDS011;15177;50.844;4.412;2022-11-15T00:27:07;33.07;;;17.20;;
27796;SDS011;15177;50.844;4.412;2022-11-15T00:29:33;34.97;;;18.30;;
27796;SDS011;15177;50.844;4.412;2022-11-15T00:31:59;38.73;;;18.37;;
27796;SDS011;15177;50.844;4.412;2022-11-15T00:34:24;31.40;;;17.60;;
27796;SDS011;15177;50.844;4.412;2022-11-15T00:36:50;39.90;;;19.07;;
27796;SDS011;15177;50.844;4.412;2022-11-15T00:39:16;34.37;;;18.57;;
27796;SDS011;15177;50.844;4.412;2022-11-15T00:41:41;33.13;;;17.43;;
27796;SDS011;15177;50.844;4.412;2022-11-15T00:44:07;31.73;;;17.57;;
27796;SDS011;15177;50.844;4.412;2022-11-15T00:46:32;35.87;;;18.40;;
27796;SDS011;15177;50.844;4.412;2022-11-15T00:48:58;36.10;;;17.80;;
27796;SDS011;15177;50.844;4.412;2022-11-15T00:51:24;31.90;;;16.60;;
27796;SDS011;15177;50.844;4.412;2022-11-15T00:53:49;42.70;;;20.43;;
27796;SDS011;15177;50.844;4.412;2022-11-15T00:56:15;32.30;;;18.03;;
27796;SDS011;15177;50.844;4.412;2022-11-15T00:58:41;36.70;;;19.50;;
27796;SDS011;15177;50.844;4.412;2022-11-15T01:01:07;38.67;;;18.20;;
27796;SDS011;15177;50.844;4.412;2022-11-15T01:03:35;36.10;;;20.03;;
27796;SDS011;15177;50.844;4.412;2022-11-15T01:06:02;45.23;;;21.03;;
27796;SDS011;15177;50.844;4.412;2022-11-15T01:08:28;37.90;;;21.40;;
27796;SDS011;15177;50.844;4.412;2022-11-15T01:10:53;44.10;;;20.37;;
27796;SDS011;15177;50.844;4.412;2022-11-15T01:13:19;45.33;;;22.30;;
27796;SDS011;15177;50.844;4.412;2022-11-15T01:15:45;42.53;;;21.23;;
27796;SDS011;15177;50.844;4.412;2022-11-15T01:18:12;38.57;;;20.07;;
27796;SDS011;15177;50.844;4.412;2022-11-15T01:20:41;46.50;;;23.03;;
27796;SDS011;15177;50.844;4.412;2022-11-15T01:23:09;43.10;;;22.97;;
27796;SDS011;15177;50.844;4.412;2022-11-15T01:25:35;47.53;;;22.50;;
27796;SDS011;15177;50.844;4.412;2022-11-15T01:28:03;41.30;;;21.73;;
27796;SDS011;15177;50.844;4.412;2022-11-15T01:30:29;37.57;;;20.00;;
27796;SDS011;15177;50.844;4.412;2022-11-15T01:32:54;42.17;;;21.03;;
27796;SDS011;15177;50.844;4.412;2022-11-15T01:35:20;37.67;;;20.67;;
27796;SDS011;15177;50.844;4.412;2022-11-15T01:37:46;32.20;;;19.53;;
27796;SDS011;15177;50.844;4.412;2022-11-15T01:40:12;39.73;;;18.87;;
27796;SDS011;15177;50.844;4.412;2022-11-15T01:42:37;33.27;;;18.27;;
27796;SDS011;15177;50.844;4.412;2022-11-15T01:45:03;35.67;;;18.30;;
27796;SDS011;15177;50.844;4.412;2022-11-15T01:47:31;29.90;;;16.80;;
27796;SDS011;15177;50.844;4.412;2022-11-15T01:52:33;30.67;;;15.97;;
27796;SDS011;15177;50.844;4.412;2022-11-15T01:57:43;32.97;;;15.40;;
27796;SDS011;15177;50.844;4.412;2022-11-15T02:00:11;30.40;;;15.13;;
27796;SDS011;15177;50.844;4.412;2022-11-15T02:02:38;29.30;;;14.80;;
27796;SDS011;15177;50.844;4.412;2022-11-15T02:05:05;28.30;;;14.23;;
27796;SDS011;15177;50.844;4.412;2022-11-15T02:07:32;26.93;;;15.33;;
27796;SDS011;15177;50.844;4.412;2022-11-15T02:10:10;27.48;;;15.75;;
27796;SDS011;15177;50.844;4.412;2022-11-15T02:12:38;20.70;;;12.17;;
27796;SDS011;15177;50.844;4.412;2022-11-15T02:15:05;28.23;;;15.43;;
27796;SDS011;15177;50.844;4.412;2022-11-15T02:23:14;25.93;;;13.40;;
27796;SDS011;15177;50.844;4.412;2022-11-15T02:37:16;31.43;;;14.87;;
27796;SDS011;15177;50.844;4.412;2022-11-15T02:42:41;24.92;;;12.82;;
27796;SDS011;15177;50.844;4.412;2022-11-15T02:45:32;28.77;;;13.63;;
27796;SDS011;15177;50.844;4.412;2022-11-15T02:48:02;25.90;;;12.97;;
27796;SDS011;15177;50.844;4.412;2022-11-15T02:50:30;23.63;;;11.60;;
27796;SDS011;15177;50.844;4.412;2022-11-15T02:52:57;32.65;;;13.15;;
27796;SDS011;15177;50.844;4.412;2022-11-15T03:09:10;19.80;;;11.40;;
27796;SDS011;15177;50.844;4.412;2022-11-15T03:11:47;17.70;;;10.23;;
27796;SDS011;15177;50.844;4.412;2022-11-15T03:14:21;21.10;;;11.60;;
27796;SDS011;15177;50.844;4.412;2022-11-15T03:16:50;20.80;;;10.97;;
27796;SDS011;15177;50.844;4.412;2022-11-15T03:22:17;23.07;;;10.23;;
27796;SDS011;15177;50.844;4.412;2022-11-15T03:24:45;20.70;;;9.77;;
27796;SDS011;15177;50.844;4.412;2022-11-15T03:27:15;21.10;;;9.27;;
27796;SDS011;15177;50.844;4.412;2022-11-15T03:29:50;18.20;;;9.63;;
27796;SDS011;15177;50.844;4.412;2022-11-15T03:32:22;17.73;;;9.10;;
27796;SDS011;15177;50.844;4.412;2022-11-15T03:34:55;14.83;;;8.60;;
27796;SDS011;15177;50.844;4.412;2022-11-15T03:37:57;15.63;;;8.63;;
27796;SDS011;15177;50.844;4.412;2022-11-15T03:40:44;12.77;;;7.60;;
27796;SDS011;15177;50.844;4.412;2022-11-15T03:46:18;11.87;;;6.67;;
27796;SDS011;15177;50.844;4.412;2022-11-15T03:48:52;15.37;;;6.87;;
27796;SDS011;15177;50.844;4.412;2022-11-15T03:51:22;17.63;;;7.67;;
27796;SDS011;15177;50.844;4.412;2022-11-15T03:53:50;17.33;;;7.33;;
27796;SDS011;15177;50.844;4.412;2022-11-15T03:56:18;13.33;;;7.37;;
27796;SDS011;15177;50.844;4.412;2022-11-15T03:58:45;17.17;;;6.47;;
27796;SDS011;15177;50.844;4.412;2022-11-15T04:01:11;16.17;;;6.30;;
27796;SDS011;15177;50.844;4.412;2022-11-15T04:03:36;14.43;;;7.53;;
27796;SDS011;15177;50.844;4.412;2022-11-15T04:06:03;14.90;;;6.33;;
27796;SDS011;15177;50.844;4.412;2022-11-15T04:08:29;14.27;;;6.70;;
27796;SDS011;15177;50.844;4.412;2022-11-15T04:10:55;10.10;;;6.33;;
27796;SDS011;15177;50.844;4.412;2022-11-15T04:13:20;10.77;;;6.07;;
27796;SDS011;15177;50.844;4.412;2022-11-15T04:15:46;12.33;;;6.43;;
27796;SDS011;15177;50.844;4.412;2022-11-15T04:18:11;19.63;;;7.37;;
27796;SDS011;15177;50.844;4.412;2022-11-15T04:20:38;14.83;;;6.33;;
27796;SDS011;15177;50.844;4.412;2022-11-15T04:23:22;19.23;;;6.73;;
27796;SDS011;15177;50.844;4.412;2022-11-15T04:26:16;15.17;;;6.27;;
27796;SDS011;15177;50.844;4.412;2022-11-15T04:28:44;9.80;;;6.00;;
27796;SDS011;15177;50.844;4.412;2022-11-15T04:31:29;11.97;;;7.17;;
27796;SDS011;15177;50.844;4.412;2022-11-15T04:33:54;13.60;;;5.70;;
27796;SDS011;15177;50.844;4.412;2022-11-15T04:36:20;12.93;;;6.03;;
27796;SDS011;15177;50.844;4.412;2022-11-15T04:39:06;13.83;;;6.27;;
27796;SDS011;15177;50.844;4.412;2022-11-15T04:41:33;8.80;;;6.33;;
27796;SDS011;15177;50.844;4.412;2022-11-15T04:43:59;11.17;;;6.27;;
27796;SDS011;15177;50.844;4.412;2022-11-15T04:46:25;12.10;;;5.93;;
27796;SDS011;15177;50.844;4.412;2022-11-15T04:48:51;10.90;;;6.63;;
27796;SDS011;15177;50.844;4.412;2022-11-15T04:51:19;10.57;;;6.50;;
27796;SDS011;15177;50.844;4.412;2022-11-15T04:53:45;14.60;;;6.33;;
27796;SDS011;15177;50.844;4.412;2022-11-15T04:56:11;13.13;;;5.30;;
27796;SDS011;15177;50.844;4.412;2022-11-15T04:58:37;12.23;;;6.20;;
27796;SDS011;15177;50.844;4.412;2022-11-15T05:01:09;16.73;;;6.70;;
27796;SDS011;15177;50.844;4.412;2022-11-15T05:03:37;11.53;;;5.90;;
27796;SDS011;15177;50.844;4.412;2022-11-15T05:06:21;10.13;;;4.93;;
27796;SDS011;15177;50.844;4.412;2022-11-15T05:08:47;15.70;;;5.57;;
27796;SDS011;15177;50.844;4.412;2022-11-15T05:11:12;12.60;;;5.10;;
27796;SDS011;15177;50.844;4.412;2022-11-15T05:13:38;9.23;;;5.03;;
27796;SDS011;15177;50.844;4.412;2022-11-15T05:16:04;12.53;;;5.00;;
27796;SDS011;15177;50.844;4.412;2022-11-15T05:18:31;9.23;;;4.50;;
27796;SDS011;15177;50.844;4.412;2022-11-15T05:21:02;11.73;;;4.80;;
27796;SDS011;15177;50.844;4.412;2022-11-15T05:23:29;9.30;;;4.73;;
27796;SDS011;15177;50.844;4.412;2022-11-15T05:25:58;15.27;;;5.03;;
27796;SDS011;15177;50.844;4.412;2022-11-15T05:28:24;8.63;;;4.77;;
27796;SDS011;15177;50.844;4.412;2022-11-15T05:30:50;13.47;;;5.33;;
27796;SDS011;15177;50.844;4.412;2022-11-15T05:33:17;12.13;;;4.83;;
27796;SDS011;15177;50.844;4.412;2022-11-15T05:35:45;11.53;;;4.73;;
27796;SDS011;15177;50.844;4.412;2022-11-15T05:38:15;4.83;;;3.83;;
27796;SDS011;15177;50.844;4.412;2022-11-15T05:40:42;11.87;;;4.57;;
27796;SDS011;15177;50.844;4.412;2022-11-15T05:43:08;8.13;;;4.03;;
27796;SDS011;15177;50.844;4.412;2022-11-15T05:45:35;11.73;;;4.37;;
27796;SDS011;15177;50.844;4.412;2022-11-15T05:48:03;9.57;;;4.20;;
27796;SDS011;15177;50.844;4.412;2022-11-15T05:50:32;11.23;;;4.03;;
27796;SDS011;15177;50.844;4.412;2022-11-15T05:52:59;12.17;;;4.53;;
27796;SDS011;15177;50.844;4.412;2022-11-15T05:55:25;8.30;;;3.83;;
27796;SDS011;15177;50.844;4.412;2022-11-15T05:57:51;12.83;;;4.67;;
27796;SDS011;15177;50.844;4.412;2022-11-15T06:00:16;9.87;;;3.50;;
27796;SDS011;15177;50.844;4.412;2022-11-15T06:02:42;7.40;;;3.73;;
27796;SDS011;15177;50.844;4.412;2022-11-15T06:05:08;9.90;;;3.87;;
27796;SDS011;15177;50.844;4.412;2022-11-15T06:07:34;13.27;;;4.50;;
27796;SDS011;15177;50.844;4.412;2022-11-15T06:09:59;7.67;;;3.70;;
27796;SDS011;15177;50.844;4.412;2022-11-15T06:12:25;13.30;;;4.00;;
27796;SDS011;15177;50.844;4.412;2022-11-15T06:14:50;12.37;;;4.50;;
27796;SDS011;15177;50.844;4.412;2022-11-15T06:17:16;8.87;;;4.60;;
27796;SDS011;15177;50.844;4.412;2022-11-15T06:19:42;11.77;;;4.40;;
27796;SDS011;15177;50.844;4.412;2022-11-15T06:22:07;9.47;;;4.13;;
27796;SDS011;15177;50.844;4.412;2022-11-15T06:24:34;8.30;;;4.10;;
27796;SDS011;15177;50.844;4.412;2022-11-15T06:27:00;7.97;;;4.03;;
27796;SDS011;15177;50.844;4.412;2022-11-15T06:29:26;10.40;;;4.13;;
27796;SDS011;15177;50.844;4.412;2022-11-15T06:31:51;7.63;;;3.90;;
27796;SDS011;15177;50.844;4.412;2022-11-15T06:34:18;8.47;;;4.00;;
27796;SDS011;15177;50.844;4.412;2022-11-15T06:36:45;7.47;;;3.20;;
27796;SDS011;15177;50.844;4.412;2022-11-15T06:39:10;8.27;;;3.70;;
27796;SDS011;15177;50.844;4.412;2022-11-15T06:41:36;8.50;;;3.93;;
27796;SDS011;15177;50.844;4.412;2022-11-15T06:44:02;11.57;;;4.80;;
27796;SDS011;15177;50.844;4.412;2022-11-15T06:46:28;9.83;;;4.00;;
27796;SDS011;15177;50.844;4.412;2022-11-15T06:48:54;10.30;;;4.77;;
27796;SDS011;15177;50.844;4.412;2022-11-15T06:51:21;6.20;;;3.87;;
27796;SDS011;15177;50.844;4.412;2022-11-15T06:53:47;7.30;;;4.17;;
27796;SDS011;15177;50.844;4.412;2022-11-15T06:56:12;15.43;;;4.93;;
27796;SDS011;15177;50.844;4.412;2022-11-15T06:58:38;6.73;;;4.00;;
27796;SDS011;15177;50.844;4.412;2022-11-15T07:01:06;9.30;;;3.80;;
27796;SDS011;15177;50.844;4.412;2022-11-15T07:03:34;10.13;;;3.90;;
27796;SDS011;15177;50.844;4.412;2022-11-15T07:06:01;10.83;;;4.10;;
27796;SDS011;15177;50.844;4.412;2022-11-15T07:08:28;6.90;;;4.20;;
27796;SDS011;15177;50.844;4.412;2022-11-15T07:10:54;11.50;;;4.33;;
27796;SDS011;15177;50.844;4.412;2022-11-15T07:13:28;6.77;;;3.73;;
27796;SDS011;15177;50.844;4.412;2022-11-15T07:15:58;8.60;;;3.70;;
27796;SDS011;15177;50.844;4.412;2022-11-15T07:18:26;9.13;;;3.77;;
27796;SDS011;15177;50.844;4.412;2022-11-15T07:20:59;7.77;;;3.67;;
27796;SDS011;15177;50.844;4.412;2022-11-15T07:23:29;8.83;;;3.47;;
27796;SDS011;15177;50.844;4.412;2022-11-15T07:25:56;14.47;;;4.43;;
27796;SDS011;15177;50.844;4.412;2022-11-15T07:28:23;12.90;;;4.30;;
27796;SDS011;15177;50.844;4.412;2022-11-15T07:30:50;15.80;;;4.47;;
27796;SDS011;15177;50.844;4.412;2022-11-15T07:33:16;20.47;;;5.70;;
27796;SDS011;15177;50.844;4.412;2022-11-15T07:35:42;13.30;;;4.20;;
27796;SDS011;15177;50.844;4.412;2022-11-15T07:38:08;10.03;;;3.77;;
27796;SDS011;15177;50.844;4.412;2022-11-15T07:40:34;9.57;;;3.67;;
27796;SDS011;15177;50.844;4.412;2022-11-15T07:43:05;11.63;;;4.03;;
27796;SDS011;15177;50.844;4.412;2022-11-15T07:45:39;15.43;;;3.97;;
27796;SDS011;15177;50.844;4.412;2022-11-15T07:48:09;6.47;;;3.43;;
27796;SDS011;15177;50.844;4.412;2022-11-15T07:50:41;9.23;;;3.80;;
27796;SDS011;15177;50.844;4.412;2022-11-15T07:53:13;10.20;;;3.83;;
27796;SDS011;15177;50.844;4.412;2022-11-15T07:55:39;7.87;;;3.80;;
27796;SDS011;15177;50.844;4.412;2022-11-15T07:58:10;5.67;;;3.87;;
27796;SDS011;15177;50.844;4.412;2022-11-15T08:00:36;10.30;;;3.90;;
27796;SDS011;15177;50.844;4.412;2022-11-15T08:03:07;6.33;;;3.50;;
27796;SDS011;15177;50.844;4.412;2022-11-15T08:05:35;9.27;;;3.47;;
27796;SDS011;15177;50.844;4.412;2022-11-15T08:08:02;12.17;;;3.83;;
27796;SDS011;15177;50.844;4.412;2022-11-15T08:10:32;4.03;;;2.53;;
27796;SDS011;15177;50.844;4.412;2022-11-15T08:13:05;8.37;;;3.17;;
27796;SDS011;15177;50.844;4.412;2022-11-15T08:15:35;9.10;;;3.33;;
27796;SDS011;15177;50.844;4.412;2022-11-15T08:18:03;4.80;;;2.70;;
27796;SDS011;15177;50.844;4.412;2022-11-15T08:20:31;6.20;;;2.93;;
27796;SDS011;15177;50.844;4.412;2022-11-15T08:22:59;5.80;;;2.83;;
27796;SDS011;15177;50.844;4.412;2022-11-15T08:25:27;8.73;;;2.50;;
27796;SDS011;15177;50.844;4.412;2022-11-15T08:27:55;3.57;;;2.20;;
27796;SDS011;15177;50.844;4.412;2022-11-15T08:30:24;9.17;;;2.23;;
27796;SDS011;15177;50.844;4.412;2022-11-15T08:32:51;8.00;;;1.93;;
27796;SDS011;15177;50.844;4.412;2022-11-15T08:35:18;8.87;;;2.33;;
27796;SDS011;15177;50.844;4.412;2022-11-15T08:37:45;5.33;;;1.80;;
27796;SDS011;15177;50.844;4.412;2022-11-15T08:40:10;12.67;;;2.40;;
27796;SDS011;15177;50.844;4.412;2022-11-15T08:42:36;5.53;;;2.20;;
27796;SDS011;15177;50.844;4.412;2022-11-15T08:45:02;8.87;;;2.37;;
27796;SDS011;15177;50.844;4.412;2022-11-15T08:47:28;5.50;;;1.83;;
27796;SDS011;15177;50.844;4.412;2022-11-15T08:49:55;3.50;;;1.70;;
27796;SDS011;15177;50.844;4.412;2022-11-15T08:52:24;7.37;;;1.77;;
27796;SDS011;15177;50.844;4.412;2022-11-15T08:54:50;6.43;;;1.90;;
27796;SDS011;15177;50.844;4.412;2022-11-15T08:57:16;10.27;;;2.50;;
27796;SDS011;15177;50.844;4.412;2022-11-15T08:59:42;5.03;;;1.50;;
27796;SDS011;15177;50.844;4.412;2022-11-15T09:02:11;6.47;;;2.10;;
27796;SDS011;15177;50.844;4.412;2022-11-15T09:04:40;6.23;;;1.57;;
27796;SDS011;15177;50.844;4.412;2022-11-15T09:07:09;10.53;;;2.40;;
27796;SDS011;15177;50.844;4.412;2022-11-15T09:09:36;7.20;;;1.63;;
27796;SDS011;15177;50.844;4.412;2022-11-15T09:12:02;4.63;;;1.60;;
27796;SDS011;15177;50.844;4.412;2022-11-15T09:14:29;6.40;;;2.40;;
27796;SDS011;15177;50.844;4.412;2022-11-15T09:16:59;8.93;;;1.80;;
27796;SDS011;15177;50.844;4.412;2022-11-15T09:19:26;5.13;;;1.43;;
27796;SDS011;15177;50.844;4.412;2022-11-15T09:21:52;6.17;;;1.87;;
27796;SDS011;15177;50.844;4.412;2022-11-15T09:24:17;6.43;;;1.40;;
27796;SDS011;15177;50.844;4.412;2022-11-15T09:26:44;4.40;;;1.60;;
27796;SDS011;15177;50.844;4.412;2022-11-15T09:29:09;5.53;;;1.47;;
27796;SDS011;15177;50.844;4.412;2022-11-15T09:31:35;6.77;;;1.63;;
27796;SDS011;15177;50.844;4.412;2022-11-15T09:34:01;7.90;;;1.53;;
27796;SDS011;15177;50.844;4.412;2022-11-15T09:36:26;8.13;;;1.40;;
27796;SDS011;15177;50.844;4.412;2022-11-15T09:38:52;5.87;;;1.50;;
27796;SDS011;15177;50.844;4.412;2022-11-15T09:49:26;5.32;;;1.40;;
27796;SDS011;15177;50.844;4.412;2022-11-15T09:51:54;8.20;;;1.55;;
27796;SDS011;15177;50.844;4.412;2022-11-15T09:54:28;5.68;;;1.50;;
27796;SDS011;15177;50.844;4.412;2022-11-15T09:57:06;10.43;;;1.80;;
27796;SDS011;15177;50.844;4.412;2022-11-15T10:05:14;5.80;;;1.23;;
27796;SDS011;15177;50.844;4.412;2022-11-15T10:07:50;4.32;;;1.13;;
27796;SDS011;15177;50.844;4.412;2022-11-15T10:10:44;8.85;;;1.25;;
27796;SDS011;15177;50.844;4.412;2022-11-15T10:13:14;3.90;;;1.42;;
27796;SDS011;15177;50.844;4.412;2022-11-15T10:15:47;3.08;;;1.08;;
27796;SDS011;15177;50.844;4.412;2022-11-15T10:18:19;6.53;;;1.25;;
27796;SDS011;15177;50.844;4.412;2022-11-15T10:20:58;8.27;;;1.20;;
27796;SDS011;15177;50.844;4.412;2022-11-15T10:23:27;9.45;;;1.73;;
27796;SDS011;15177;50.844;4.412;2022-11-15T10:25:56;7.80;;;1.45;;
27796;SDS011;15177;50.844;4.412;2022-11-15T10:28:30;7.47;;;1.25;;
27796;SDS011;15177;50.844;4.412;2022-11-15T10:30:57;4.97;;;1.33;;
27796;SDS011;15177;50.844;4.412;2022-11-15T10:36:41;7.30;;;1.10;;
27796;SDS011;15177;50.844;4.412;2022-11-15T10:38:54;8.95;;;1.20;;
27796;SDS011;15177;50.844;4.412;2022-11-15T10:44:17;10.20;;;1.48;;
27796;SDS011;15177;50.844;4.412;2022-11-15T10:47:20;7.80;;;1.52;;
27796;SDS011;15177;50.844;4.412;2022-11-15T10:49:55;4.33;;;1.30;;
27796;SDS011;15177;50.844;4.412;2022-11-15T10:52:26;6.90;;;1.38;;
27796;SDS011;15177;50.844;4.412;2022-11-15T10:54:55;8.03;;;1.87;;
27796;SDS011;15177;50.844;4.412;2022-11-15T10:57:27;8.18;;;2.00;;
27796;SDS011;15177;50.844;4.412;2022-11-15T10:59:59;5.45;;;1.33;;
27796;SDS011;15177;50.844;4.412;2022-11-15T11:05:26;10.15;;;1.73;;
27796;SDS011;15177;50.844;4.412;2022-11-15T11:10:26;12.18;;;1.48;;
27796;SDS011;15177;50.844;4.412;2022-11-15T11:12:52;4.90;;;1.10;;
27796;SDS011;15177;50.844;4.412;2022-11-15T11:15:18;5.55;;;0.98;;
27796;SDS011;15177;50.844;4.412;2022-11-15T11:26:14;8.75;;;2.30;;
27796;SDS011;15177;50.844;4.412;2022-11-15T11:28:56;7.63;;;1.27;;
27796;SDS011;15177;50.844;4.412;2022-11-15T11:31:58;5.20;;;1.25;;
27796;SDS011;15177;50.844;4.412;2022-11-15T11:40:30;9.18;;;1.00;;
27796;SDS011;15177;50.844;4.412;2022-11-15T11:42:59;3.83;;;1.23;;
27796;SDS011;15177;50.844;4.412;2022-11-15T11:53:51;3.03;;;1.15;;
27796;SDS011;15177;50.844;4.412;2022-11-15T11:56:37;3.28;;;1.08;;
27796;SDS011;15177;50.844;4.412;2022-11-15T12:01:59;7.72;;;1.13;;
27796;SDS011;15177;50.844;4.412;2022-11-15T12:04:38;4.93;;;1.27;;
27796;SDS011;15177;50.844;4.412;2022-11-15T12:07:17;4.53;;;1.33;;
27796;SDS011;15177;50.844;4.412;2022-11-15T12:09:52;7.60;;;1.20;;
27796;SDS011;15177;50.844;4.412;2022-11-15T12:15:16;4.18;;;1.08;;
27796;SDS011;15177;50.844;4.412;2022-11-15T12:17:45;8.88;;;2.05;;
27796;SDS011;15177;50.844;4.412;2022-11-15T12:20:21;5.60;;;1.10;;
27796;SDS011;15177;50.844;4.412;2022-11-15T12:23:50;3.83;;;1.05;;
27796;SDS011;15177;50.844;4.412;2022-11-15T12:33:41;3.78;;;1.35;;
27796;SDS011;15177;50.844;4.412;2022-11-15T12:36:32;6.30;;;1.23;;
27796;SDS011;15177;50.844;4.412;2022-11-15T12:39:08;7.80;;;1.35;;
27796;SDS011;15177;50.844;4.412;2022-11-15T12:41:36;8.80;;;1.27;;
27796;SDS011;15177;50.844;4.412;2022-11-15T12:44:04;6.37;;;1.00;;
27796;SDS011;15177;50.844;4.412;2022-11-15T13:02:37;6.53;;;1.17;;
27796;SDS011;15177;50.844;4.412;2022-11-15T13:17:47;7.05;;;2.33;;
27796;SDS011;15177;50.844;4.412;2022-11-15T13:20:20;3.28;;;0.93;;
27796;SDS011;15177;50.844;4.412;2022-11-15T13:23:10;4.78;;;1.13;;
27796;SDS011;15177;50.844;4.412;2022-11-15T13:28:10;3.03;;;1.23;;
27796;SDS011;15177;50.844;4.412;2022-11-15T13:31:22;4.47;;;1.52;;
27796;SDS011;15177;50.844;4.412;2022-11-15T13:33:45;3.75;;;0.98;;
27796;SDS011;15177;50.844;4.412;2022-11-15T13:36:26;6.97;;;1.25;;
27796;SDS011;15177;50.844;4.412;2022-11-15T13:38:58;5.07;;;1.13;;
27796;SDS011;15177;50.844;4.412;2022-11-15T13:41:27;4.93;;;1.52;;
27796;SDS011;15177;50.844;4.412;2022-11-15T13:43:55;4.53;;;1.10;;
27796;SDS011;15177;50.844;4.412;2022-11-15T13:49:10;2.63;;;0.98;;
27796;SDS011;15177;50.844;4.412;2022-11-15T13:51:38;6.15;;;1.58;;
27796;SDS011;15177;50.844;4.412;2022-11-15T13:56:42;6.28;;;1.15;;
27796;SDS011;15177;50.844;4.412;2022-11-15T14:01:47;2.75;;;1.35;;
27796;SDS011;15177;50.844;4.412;2022-11-15T14:04:17;4.43;;;1.13;;
27796;SDS011;15177;50.844;4.412;2022-11-15T14:06:52;5.75;;;1.42;;
27796;SDS011;15177;50.844;4.412;2022-11-15T14:09:29;2.50;;;0.85;;
27796;SDS011;15177;50.844;4.412;2022-11-15T14:11:59;9.43;;;1.48;;
27796;SDS011;15177;50.844;4.412;2022-11-15T14:14:26;3.08;;;1.27;;
27796;SDS011;15177;50.844;4.412;2022-11-15T14:16:54;2.92;;;1.20;;
27796;SDS011;15177;50.844;4.412;2022-11-15T14:24:47;4.43;;;1.42;;
27796;SDS011;15177;50.844;4.412;2022-11-15T14:27:30;2.95;;;1.40;;
27796;SDS011;15177;50.844;4.412;2022-11-15T14:29:56;10.40;;;1.77;;
27796;SDS011;15177;50.844;4.412;2022-11-15T14:32:25;2.88;;;1.23;;
27796;SDS011;15177;50.844;4.412;2022-11-15T14:34:57;1.92;;;1.08;;
27796;SDS011;15177;50.844;4.412;2022-11-15T14:37:31;8.48;;;1.55;;
27796;SDS011;15177;50.844;4.412;2022-11-15T14:39:59;4.38;;;1.98;;
27796;SDS011;15177;50.844;4.412;2022-11-15T14:42:26;2.45;;;1.00;;
27796;SDS011;15177;50.844;4.412;2022-11-15T14:44:52;2.50;;;1.05;;
27796;SDS011;15177;50.844;4.412;2022-11-15T14:47:18;1.73;;;1.10;;
27796;SDS011;15177;50.844;4.412;2022-11-15T14:49:44;3.40;;;1.70;;
27796;SDS011;15177;50.844;4.412;2022-11-15T14:52:29;5.07;;;1.63;;
27796;SDS011;15177;50.844;4.412;2022-11-15T14:55:01;3.38;;;1.58;;
27796;SDS011;15177;50.844;4.412;2022-11-15T14:57:34;4.20;;;1.48;;
27796;SDS011;15177;50.844;4.412;2022-11-15T15:00:00;1.83;;;1.40;;
27796;SDS011;15177;50.844;4.412;2022-11-15T15:02:28;1.70;;;1.30;;
27796;SDS011;15177;50.844;4.412;2022-11-15T15:04:53;2.80;;;1.60;;
27796;SDS011;15177;50.844;4.412;2022-11-15T15:07:19;2.75;;;1.75;;
27796;SDS011;15177;50.844;4.412;2022-11-15T15:09:45;3.97;;;1.70;;
27796;SDS011;15177;50.844;4.412;2022-11-15T15:14:44;2.22;;;1.30;;
27796;SDS011;15177;50.844;4.412;2022-11-15T15:17:10;2.85;;;1.48;;
27796;SDS011;15177;50.844;4.412;2022-11-15T15:19:36;4.00;;;1.65;;
27796;SDS011;15177;50.844;4.412;2022-11-15T15:22:02;4.40;;;1.38;;
27796;SDS011;15177;50.844;4.412;2022-11-15T15:24:29;4.67;;;2.00;;
27796;SDS011;15177;50.844;4.412;2022-11-15T15:26:55;7.57;;;1.90;;
27796;SDS011;15177;50.844;4.412;2022-11-15T15:29:21;5.57;;;2.10;;
27796;SDS011;15177;50.844;4.412;2022-11-15T15:31:47;4.50;;;1.45;;
27796;SDS011;15177;50.844;4.412;2022-11-15T15:34:15;3.55;;;1.60;;
27796;SDS011;15177;50.844;4.412;2022-11-15T15:36:41;2.35;;;1.25;;
27796;SDS011;15177;50.844;4.412;2022-11-15T15:39:08;6.47;;;1.70;;
27796;SDS011;15177;50.844;4.412;2022-11-15T15:41:36;5.13;;;2.30;;
27796;SDS011;15177;50.844;4.412;2022-11-15T15:44:02;2.00;;;1.60;;
27796;SDS011;15177;50.844;4.412;2022-11-15T15:46:27;6.53;;;2.30;;
27796;SDS011;15177;50.844;4.412;2022-11-15T15:48:56;6.07;;;2.35;;
27796;SDS011;15177;50.844;4.412;2022-11-15T15:51:21;3.37;;;2.20;;
27796;SDS011;15177;50.844;4.412;2022-11-15T15:53:47;5.75;;;2.03;;
27796;SDS011;15177;50.844;4.412;2022-11-15T15:56:13;6.60;;;2.20;;
27796;SDS011;15177;50.844;4.412;2022-11-15T15:58:39;5.47;;;2.23;;
27796;SDS011;15177;50.844;4.412;2022-11-15T16:01:05;4.03;;;2.50;;
27796;SDS011;15177;50.844;4.412;2022-11-15T16:03:30;3.60;;;2.30;;
27796;SDS011;15177;50.844;4.412;2022-11-15T16:05:56;6.97;;;1.90;;
27796;SDS011;15177;50.844;4.412;2022-11-15T16:08:23;4.30;;;2.20;;
27796;SDS011;15177;50.844;4.412;2022-11-15T16:10:49;4.30;;;2.10;;
27796;SDS011;15177;50.844;4.412;2022-11-15T16:13:15;4.53;;;2.00;;
27796;SDS011;15177;50.844;4.412;2022-11-15T16:15:42;3.97;;;1.80;;
27796;SDS011;15177;50.844;4.412;2022-11-15T16:18:08;4.10;;;2.60;;
27796;SDS011;15177;50.844;4.412;2022-11-15T16:23:08;4.43;;;2.20;;
27796;SDS011;15177;50.844;4.412;2022-11-15T16:25:39;4.83;;;2.50;;
27796;SDS011;15177;50.844;4.412;2022-11-15T16:28:24;2.27;;;1.63;;
27796;SDS011;15177;50.844;4.412;2022-11-15T16:33:25;5.77;;;2.53;;
27796;SDS011;15177;50.844;4.412;2022-11-15T16:35:51;4.60;;;2.40;;
27796;SDS011;15177;50.844;4.412;2022-11-15T16:38:17;4.30;;;2.30;;
27796;SDS011;15177;50.844;4.412;2022-11-15T16:40:43;5.17;;;2.17;;
27796;SDS011;15177;50.844;4.412;2022-11-15T16:43:09;4.30;;;2.43;;
27796;SDS011;15177;50.844;4.412;2022-11-15T16:45:35;5.63;;;2.47;;
27796;SDS011;15177;50.844;4.412;2022-11-15T16:48:01;5.07;;;3.00;;
27796;SDS011;15177;50.844;4.412;2022-11-15T16:50:28;5.43;;;2.37;;
27796;SDS011;15177;50.844;4.412;2022-11-15T16:52:58;6.30;;;2.60;;
27796;SDS011;15177;50.844;4.412;2022-11-15T16:55:26;5.93;;;2.80;;
27796;SDS011;15177;50.844;4.412;2022-11-15T16:57:54;4.77;;;2.83;;
27796;SDS011;15177;50.844;4.412;2022-11-15T17:00:22;4.60;;;2.63;;
27796;SDS011;15177;50.844;4.412;2022-11-15T17:02:49;5.57;;;2.70;;
27796;SDS011;15177;50.844;4.412;2022-11-15T17:05:17;7.33;;;2.63;;
27796;SDS011;15177;50.844;4.412;2022-11-15T17:07:45;5.40;;;2.50;;
27796;SDS011;15177;50.844;4.412;2022-11-15T17:10:18;8.10;;;2.87;;
27796;SDS011;15177;50.844;4.412;2022-11-15T17:12:44;5.97;;;2.77;;
27796;SDS011;15177;50.844;4.412;2022-11-15T17:15:10;8.57;;;2.83;;
27796;SDS011;15177;50.844;4.412;2022-11-15T17:17:37;5.97;;;3.20;;
27796;SDS011;15177;50.844;4.412;2022-11-15T17:20:03;6.63;;;3.17;;
27796;SDS011;15177;50.844;4.412;2022-11-15T17:22:34;4.30;;;3.10;;
27796;SDS011;15177;50.844;4.412;2022-11-15T17:25:00;7.43;;;3.90;;
27796;SDS011;15177;50.844;4.412;2022-11-15T17:27:27;4.53;;;2.93;;
27796;SDS011;15177;50.844;4.412;2022-11-15T17:29:53;5.77;;;2.77;;